createdAt,value
2023-01-12T00:01:27.587Z,100567.03
2023-01-12T00:04:14.053Z,100577.50
2023-01-12T00:07:00.188Z,100579.37
2023-01-12T00:09:45.470Z,100580.38
2023-01-12T00:12:30.968Z,100584.97
2023-01-12T00:15:16.293Z,100589.75
2023-01-12T00:18:01.617Z,100594.28
2023-01-12T00:20:50.309Z,100592.25
2023-01-12T00:23:35.768Z,100605.84
2023-01-12T00:26:21.198Z,100606.97
2023-01-12T00:29:06.494Z,100596.19
2023-01-12T00:31:53.474Z,100616.09
2023-01-12T00:34:38.913Z,100623.34
2023-01-12T00:37:26.029Z,100632.25
2023-01-12T00:40:11.897Z,100631.72
2023-01-12T00:43:15.758Z,100646.19
2023-01-12T00:46:01.111Z,100643.84
2023-01-12T00:48:46.736Z,100644.75
2023-01-12T00:51:33.478Z,100626.87
2023-01-12T00:54:18.732Z,100640.72
2023-01-12T00:57:06.377Z,100623.03
2023-01-12T00:59:55.085Z,100640.31
2023-01-12T01:02:40.497Z,100635.12
2023-01-12T01:05:26.672Z,100634.31
2023-01-12T01:08:12.752Z,100632.81
2023-01-12T01:11:06.402Z,100644.41
2023-01-12T01:13:53.885Z,100642.28
2023-01-12T01:16:38.941Z,100651.69
2023-01-12T01:19:24.373Z,100654.53
2023-01-12T01:22:11.751Z,100659.84
2023-01-12T01:24:57.451Z,100647.28
2023-01-12T01:27:43.209Z,100652.38
2023-01-12T01:30:28.422Z,100644.97
2023-01-12T01:33:14.756Z,100663.53
2023-01-12T01:36:00.245Z,100667.03
2023-01-12T01:38:47.124Z,100650.84
2023-01-12T01:41:33.433Z,100653.22
2023-01-12T01:44:30.807Z,100658.75
2023-01-12T01:47:27.014Z,100659.72
2023-01-12T01:50:20.570Z,100652.69
2023-01-12T01:53:12.478Z,100662.94
2023-01-12T01:56:01.893Z,100654.59
2023-01-12T01:58:51.972Z,100649.63
2023-01-12T02:01:39.092Z,100659.72
2023-01-12T02:04:26.790Z,100655.44
2023-01-12T02:07:12.678Z,100657.22
2023-01-12T02:10:00.791Z,100655.19
2023-01-12T02:13:04.988Z,100654.84
2023-01-12T02:16:23.197Z,100657.28
2023-01-12T02:19:24.454Z,100658.09
2023-01-12T02:22:33.634Z,100650.56
2023-01-12T02:25:43.919Z,100662.06
2023-01-12T02:28:45.972Z,100665.13
2023-01-12T02:31:47.742Z,100654.56
2023-01-12T02:34:42.039Z,100643.75
2023-01-12T02:37:45.895Z,100654.69
2023-01-12T02:40:41.745Z,100651.97
2023-01-12T02:43:30.745Z,100649.25
2023-01-12T02:46:28.113Z,100653.59
2023-01-12T02:49:18.183Z,100646.72
2023-01-12T02:52:09.852Z,100642.47
2023-01-12T02:54:55.332Z,100650.75
2023-01-12T02:57:41.217Z,100647.56
2023-01-12T03:00:27.086Z,100648.47
2023-01-12T03:03:12.733Z,100647.47
2023-01-12T03:05:59.835Z,100652.56
2023-01-12T03:08:47.299Z,100646.38
2023-01-12T03:11:32.972Z,100648.69
2023-01-12T03:14:18.553Z,100650.28
2023-01-12T03:17:07.604Z,100646.59
2023-01-12T03:19:54.983Z,100644.37
2023-01-12T03:22:42.180Z,100633.41
2023-01-12T03:25:28.613Z,100622.59
2023-01-12T03:28:15.032Z,100627.69
2023-01-12T03:31:12.035Z,100627.69
2023-01-12T03:33:59.093Z,100635.00
2023-01-12T03:36:56.411Z,100640.31
2023-01-12T03:40:01.247Z,100646.66
2023-01-12T03:42:52.895Z,100644.34
2023-01-12T03:45:39.604Z,100635.59
2023-01-12T03:48:27.616Z,100641.47
2023-01-12T03:51:42.576Z,100639.25
2023-01-12T03:54:28.904Z,100633.97
2023-01-12T03:57:14.403Z,100633.69
2023-01-12T04:00:00.392Z,100628.22
2023-01-12T04:02:45.661Z,100609.06
2023-01-12T04:05:30.601Z,100606.66
2023-01-12T04:08:16.527Z,100608.31
2023-01-12T04:11:22.086Z,100601.53
2023-01-12T04:14:07.511Z,100619.97
2023-01-12T04:16:53.050Z,100616.13
2023-01-12T04:19:38.472Z,100599.91
2023-01-12T04:22:42.315Z,100608.84
2023-01-12T04:25:27.708Z,100612.59
2023-01-12T04:28:13.263Z,100611.50
2023-01-12T04:30:58.320Z,100608.91
2023-01-12T04:33:44.188Z,100612.34
2023-01-12T04:36:29.554Z,100620.94
2023-01-12T04:39:15.014Z,100612.81
2023-01-12T04:42:00.486Z,100597.16
2023-01-12T04:44:45.968Z,100610.34
2023-01-12T04:47:31.516Z,100615.53
2023-01-12T04:50:16.698Z,100622.19
2023-01-12T04:53:03.843Z,100613.66
2023-01-12T04:55:50.085Z,100615.28
2023-01-12T04:58:35.764Z,100616.87
2023-01-12T05:01:22.444Z,100622.19
2023-01-12T05:04:08.904Z,100630.16
2023-01-12T05:06:53.949Z,100622.78
2023-01-12T05:09:59.070Z,100623.13
2023-01-12T05:12:44.480Z,100633.50
2023-01-12T05:15:29.511Z,100636.06
2023-01-12T05:18:15.581Z,100644.28
2023-01-12T05:21:00.826Z,100641.41
2023-01-12T05:23:46.130Z,100642.84
2023-01-12T05:26:31.457Z,100653.19
2023-01-12T05:29:16.872Z,100655.38
2023-01-12T05:32:02.326Z,100658.09
2023-01-12T05:34:47.720Z,100668.38
2023-01-12T05:37:33.666Z,100651.44
2023-01-12T05:40:18.702Z,100653.31
2023-01-12T05:43:22.561Z,100668.84
2023-01-12T05:46:08.022Z,100679.12
2023-01-12T05:48:55.495Z,100678.16
2023-01-12T05:51:41.145Z,100680.34
2023-01-12T05:54:27.462Z,100685.44
2023-01-12T05:57:12.861Z,100668.75
2023-01-12T05:59:59.542Z,100682.94
2023-01-12T06:02:44.979Z,100677.16
2023-01-12T06:05:30.354Z,100681.63
2023-01-12T06:08:16.961Z,100688.03
2023-01-12T06:11:03.459Z,100693.44
2023-01-12T06:13:57.936Z,100710.41
2023-01-12T06:16:44.114Z,100703.62
2023-01-12T06:19:29.494Z,100710.97
2023-01-12T06:22:15.286Z,100707.00
2023-01-12T06:25:00.716Z,100709.56
2023-01-12T06:27:46.060Z,100711.31
2023-01-12T06:30:33.270Z,100688.69
2023-01-12T06:33:18.585Z,100714.69
2023-01-12T06:36:04.694Z,100693.75
2023-01-12T06:38:50.126Z,100725.09
2023-01-12T06:41:57.187Z,100724.91
2023-01-12T06:44:42.825Z,100726.31
2023-01-12T06:47:28.494Z,100707.91
2023-01-12T06:50:14.529Z,100717.38
2023-01-12T06:53:01.102Z,100741.06
2023-01-12T06:55:50.892Z,100733.03
2023-01-12T06:58:36.422Z,100739.50
2023-01-12T07:01:23.076Z,100737.72
2023-01-12T07:04:13.298Z,100724.03
2023-01-12T07:07:01.038Z,100708.44
2023-01-12T07:09:46.811Z,100739.75
2023-01-12T07:12:39.716Z,100736.97
2023-01-12T07:15:25.985Z,100742.13
2023-01-12T07:18:12.376Z,100737.78
2023-01-12T07:20:58.095Z,100742.13
2023-01-12T07:23:44.270Z,100727.66
2023-01-12T07:26:29.475Z,100735.03
2023-01-12T07:29:16.243Z,100751.00
2023-01-12T07:32:03.359Z,100749.00
2023-01-12T07:34:51.841Z,100746.16
2023-01-12T07:37:37.382Z,100742.75
2023-01-12T07:40:22.688Z,100742.69
2023-01-12T07:43:09.072Z,100754.69
2023-01-12T07:46:00.658Z,100753.69
2023-01-12T07:48:48.019Z,100760.34
2023-01-12T07:51:35.272Z,100752.81
2023-01-12T07:54:23.625Z,100756.97
2023-01-12T07:57:10.918Z,100749.94
2023-01-12T07:59:55.932Z,100755.53
2023-01-12T08:02:41.979Z,100764.66
2023-01-12T08:05:27.554Z,100766.81
2023-01-12T08:08:13.599Z,100766.59
2023-01-12T08:11:03.746Z,100769.00
2023-01-12T08:13:49.312Z,100772.09
2023-01-12T08:16:40.878Z,100777.75
2023-01-12T08:19:31.286Z,100781.41
2023-01-12T08:22:22.354Z,100757.81
2023-01-12T08:25:11.366Z,100773.25
2023-01-12T08:28:00.736Z,100769.09
2023-01-12T08:30:49.265Z,100773.25
2023-01-12T08:33:34.926Z,100771.59
2023-01-12T08:36:21.898Z,100775.84
2023-01-12T08:39:07.415Z,100773.03
2023-01-12T08:41:52.797Z,100786.78
2023-01-12T08:44:40.739Z,100780.13
2023-01-12T08:47:28.322Z,100792.50
2023-01-12T08:50:14.616Z,100803.53
2023-01-12T08:53:00.203Z,100794.09
2023-01-12T08:55:55.833Z,100796.50
2023-01-12T08:58:43.921Z,100791.88
2023-01-12T09:01:29.595Z,100812.06
2023-01-12T09:04:14.947Z,100808.69
2023-01-12T09:07:00.589Z,100804.62
2023-01-12T09:09:49.173Z,100787.62
2023-01-12T09:12:35.871Z,100805.97
2023-01-12T09:15:22.370Z,100806.47
2023-01-12T09:18:08.695Z,100806.00
2023-01-12T09:21:01.727Z,100805.94
2023-01-12T09:23:49.357Z,100814.47
2023-01-12T09:26:43.522Z,100822.44
2023-01-12T09:29:31.559Z,100814.41
2023-01-12T09:32:26.044Z,100804.06
2023-01-12T09:35:15.081Z,100812.47
2023-01-12T09:38:00.189Z,100817.22
2023-01-12T09:40:46.061Z,100804.69
2023-01-12T09:43:50.401Z,100795.94
2023-01-12T09:46:56.512Z,100808.44
2023-01-12T09:49:47.301Z,100812.56
2023-01-12T09:52:57.386Z,100809.13
2023-01-12T09:56:03.073Z,100805.22
2023-01-12T09:59:44.230Z,100813.84
2023-01-12T10:02:35.574Z,100809.94
2023-01-12T10:05:44.692Z,100812.22
2023-01-12T10:08:36.438Z,100815.28
2023-01-12T10:11:39.135Z,100812.00
2023-01-12T10:14:33.385Z,100807.31
2023-01-12T10:17:51.385Z,100801.88
2023-01-12T10:20:42.635Z,100802.41
2023-01-12T10:23:28.423Z,100804.34
2023-01-12T10:26:23.203Z,100797.69
2023-01-12T10:29:10.709Z,100795.41
2023-01-12T10:31:55.916Z,100791.78
2023-01-12T10:34:54.234Z,100793.16
2023-01-12T10:37:56.882Z,100788.75
2023-01-12T10:40:44.608Z,100784.38
2023-01-12T10:43:34.575Z,100781.19
2023-01-12T10:46:24.385Z,100775.22
2023-01-12T10:49:21.509Z,100782.13
2023-01-12T10:52:11.299Z,100771.69
2023-01-12T10:54:58.938Z,100760.03
2023-01-12T10:57:46.244Z,100753.88
2023-01-12T11:00:32.120Z,100746.88
2023-01-12T11:03:33.995Z,100740.38
2023-01-12T11:06:30.906Z,100728.94
2023-01-12T11:09:28.988Z,100712.94
2023-01-12T11:12:23.764Z,100725.66
2023-01-12T11:15:12.266Z,100728.22
2023-01-12T11:17:57.479Z,100732.50
2023-01-12T11:20:48.020Z,100725.37
2023-01-12T11:23:48.395Z,100722.75
2023-01-12T11:26:37.086Z,100721.53
2023-01-12T11:29:45.410Z,100718.16
2023-01-12T11:32:37.070Z,100725.28
2023-01-12T11:35:50.136Z,100722.25
2023-01-12T11:38:44.567Z,100703.72
2023-01-12T11:42:10.477Z,100723.31
2023-01-12T11:45:28.445Z,100714.78
2023-01-12T11:48:21.654Z,100729.56
2023-01-12T11:51:08.672Z,100726.03
2023-01-12T11:53:54.437Z,100725.16
2023-01-12T11:56:58.873Z,100724.19
2023-01-12T11:59:56.397Z,100722.09
2023-01-12T12:02:46.379Z,100729.50
2023-01-12T12:05:47.523Z,100718.75
2023-01-12T12:09:04.347Z,100716.94
2023-01-12T12:12:27.645Z,100711.13
2023-01-12T12:15:22.964Z,100714.44
2023-01-12T12:18:26.701Z,100716.56
2023-01-12T12:21:30.480Z,100709.62
2023-01-12T12:24:21.789Z,100708.06
2023-01-12T12:27:21.435Z,100715.59
2023-01-12T12:30:22.270Z,100710.88
2023-01-12T12:33:45.363Z,100709.75
2023-01-12T12:36:51.539Z,100710.28
2023-01-12T12:39:42.758Z,100709.09
2023-01-12T12:43:03.367Z,100696.38
2023-01-12T12:45:56.895Z,100703.78
2023-01-12T12:49:05.365Z,100696.47
2023-01-12T12:51:53.068Z,100698.59
2023-01-12T12:54:39.988Z,100689.84
2023-01-12T12:57:25.367Z,100692.25
2023-01-12T13:00:30.369Z,100697.59
2023-01-12T13:03:40.443Z,100703.44
2023-01-12T13:06:38.541Z,100690.56
2023-01-12T13:09:25.279Z,100696.97
2023-01-12T13:12:33.916Z,100698.28
2023-01-12T13:15:21.946Z,100705.13
2023-01-12T13:18:45.986Z,100694.31
2023-01-12T13:21:57.221Z,100687.34
2023-01-12T13:24:44.658Z,100691.03
2023-01-12T13:27:49.019Z,100695.38
2023-01-12T13:30:35.024Z,100690.81
2023-01-12T13:33:28.481Z,100699.31
2023-01-12T13:36:30.496Z,100694.91
2023-01-12T13:39:16.343Z,100709.13
2023-01-12T13:42:20.526Z,100711.31
2023-01-12T13:45:11.539Z,100715.34
2023-01-12T13:47:57.100Z,100709.16
2023-01-12T13:50:48.050Z,100702.25
2023-01-12T13:53:33.614Z,100709.34
2023-01-12T13:56:24.468Z,100708.97
2023-01-12T13:59:18.253Z,100701.34
2023-01-12T14:02:04.079Z,100698.94
2023-01-12T14:04:57.521Z,100698.69
2023-01-12T14:08:24.376Z,100699.38
2023-01-12T14:11:20.811Z,100702.13
2023-01-12T14:14:58.912Z,100699.19
2023-01-12T14:17:53.594Z,100697.22
2023-01-12T14:20:58.574Z,100687.56
2023-01-12T14:23:44.145Z,100690.97
2023-01-12T14:26:30.537Z,100683.31
2023-01-12T14:29:15.831Z,100677.91
2023-01-12T14:32:01.340Z,100688.22
2023-01-12T14:34:52.395Z,100682.56
2023-01-12T14:37:37.375Z,100685.28
2023-01-12T14:40:27.986Z,100685.50
2023-01-12T14:43:33.214Z,100697.47
2023-01-12T14:46:25.318Z,100686.50
2023-01-12T14:49:22.752Z,100689.72
2023-01-12T14:52:16.924Z,100704.38
2023-01-12T14:55:18.708Z,100702.34
2023-01-12T14:58:05.180Z,100704.38
2023-01-12T15:00:50.753Z,100706.06
2023-01-12T15:03:43.712Z,100693.00
2023-01-12T15:06:29.355Z,100691.66
2023-01-12T15:09:27.643Z,100702.13
2023-01-12T15:12:25.607Z,100693.19
2023-01-12T15:15:15.079Z,100699.00
2023-01-12T15:18:18.779Z,100701.75
2023-01-12T15:21:22.875Z,100700.22
2023-01-12T15:24:53.566Z,100698.03
2023-01-12T15:27:40.179Z,100696.69
2023-01-12T15:30:25.161Z,100696.47
2023-01-12T15:33:10.600Z,100703.28
2023-01-12T15:35:58.641Z,100698.41
2023-01-12T15:38:44.536Z,100703.94
2023-01-12T15:41:49.714Z,100711.09
2023-01-12T15:44:34.832Z,100710.28
2023-01-12T15:47:21.193Z,100716.09
2023-01-12T15:50:07.197Z,100711.00
2023-01-12T15:52:52.781Z,100713.16
2023-01-12T15:55:39.530Z,100709.78
2023-01-12T15:58:24.886Z,100709.94
2023-01-12T16:01:16.357Z,100712.53
2023-01-12T16:04:39.807Z,100703.22
2023-01-12T16:07:06.943Z,100708.19
2023-01-12T16:09:52.384Z,100705.56
2023-01-12T16:12:37.904Z,100710.03
2023-01-12T16:15:24.628Z,100708.00
2023-01-12T16:18:10.221Z,100706.38
2023-01-12T16:20:59.359Z,100709.81
2023-01-12T16:23:45.910Z,100702.00
2023-01-12T16:26:31.441Z,100704.97
2023-01-12T16:29:17.565Z,100700.34
2023-01-12T16:32:03.383Z,100694.41
2023-01-12T16:34:48.631Z,100667.94
2023-01-12T16:37:35.352Z,100701.66
2023-01-12T16:40:20.843Z,100703.78
2023-01-12T16:43:06.235Z,100706.66
2023-01-12T16:45:52.073Z,100708.63
2023-01-12T16:48:39.404Z,100704.22
2023-01-12T16:51:25.763Z,100715.63
2023-01-12T16:54:10.698Z,100715.31
2023-01-12T16:56:56.177Z,100718.81
2023-01-12T16:59:41.921Z,100731.69
2023-01-12T17:02:28.884Z,100731.28
2023-01-12T17:05:15.206Z,100731.50
2023-01-12T17:08:00.431Z,100737.50
2023-01-12T17:10:45.765Z,100730.97
2023-01-12T17:13:31.163Z,100733.78
2023-01-12T17:16:16.564Z,100726.00
2023-01-12T17:19:02.316Z,100726.97
2023-01-12T17:21:48.071Z,100718.81
2023-01-12T17:24:36.098Z,100722.22
2023-01-12T17:27:21.868Z,100732.03
2023-01-12T17:30:07.825Z,100735.72
2023-01-12T17:32:53.217Z,100734.00
2023-01-12T17:35:38.471Z,100736.25
2023-01-12T17:38:23.787Z,100740.59
2023-01-12T17:41:34.171Z,100734.03
2023-01-12T17:44:20.388Z,100740.78
2023-01-12T17:47:05.786Z,100731.63
2023-01-12T17:49:51.352Z,100732.28
2023-01-12T17:52:36.330Z,100718.22
2023-01-12T17:55:22.195Z,100724.34
2023-01-12T17:58:07.745Z,100722.63
2023-01-12T18:00:52.889Z,100718.28
2023-01-12T18:03:38.364Z,100713.03
2023-01-12T18:06:27.386Z,100718.91
2023-01-12T18:09:12.711Z,100719.41
2023-01-12T18:11:58.159Z,100719.06
2023-01-12T18:14:43.656Z,100728.87
2023-01-12T18:17:30.098Z,100723.59
2023-01-12T18:20:15.387Z,100723.78
2023-01-12T18:23:00.699Z,100701.44
2023-01-12T18:25:46.142Z,100713.41
2023-01-12T18:28:31.441Z,100711.41
2023-01-12T18:31:19.455Z,100728.37
2023-01-12T18:34:07.734Z,100723.25
2023-01-12T18:36:53.106Z,100717.31
2023-01-12T18:39:41.351Z,100690.03
2023-01-12T18:42:45.086Z,100700.94
2023-01-12T18:45:30.530Z,100694.81
2023-01-12T18:48:23.723Z,100697.25
2023-01-12T18:51:27.582Z,100699.34
2023-01-12T18:54:12.791Z,100696.84
2023-01-12T18:56:59.315Z,100701.94
2023-01-12T18:59:50.390Z,100702.16
2023-01-12T19:02:35.469Z,100696.84
2023-01-12T19:05:25.462Z,100694.97
2023-01-12T19:08:29.712Z,100696.97
2023-01-12T19:11:15.755Z,100679.34
2023-01-12T19:14:19.580Z,100699.44
2023-01-12T19:17:23.464Z,100675.53
2023-01-12T19:20:14.423Z,100690.19
2023-01-12T19:23:18.416Z,100680.41
2023-01-12T19:26:22.315Z,100694.31
2023-01-12T19:29:07.688Z,100701.69
2023-01-12T19:31:53.124Z,100701.94
2023-01-12T19:34:38.354Z,100696.94
2023-01-12T19:37:23.727Z,100700.53
2023-01-12T19:40:25.726Z,100698.16
2023-01-12T19:43:19.362Z,100691.91
2023-01-12T19:46:04.741Z,100687.00
2023-01-12T19:48:50.123Z,100681.09
2023-01-12T19:51:35.609Z,100696.53
2023-01-12T19:54:21.139Z,100678.91
2023-01-12T19:57:06.458Z,100702.66
2023-01-12T19:59:51.727Z,100693.19
2023-01-12T20:02:36.907Z,100692.53
2023-01-12T20:05:22.844Z,100678.06
2023-01-12T20:08:08.868Z,100691.19
2023-01-12T20:10:58.997Z,100697.00
2023-01-12T20:13:44.452Z,100692.78
2023-01-12T20:16:30.107Z,100687.50
2023-01-12T20:19:15.473Z,100683.34
2023-01-12T20:22:01.596Z,100686.09
2023-01-12T20:24:47.634Z,100675.94
2023-01-12T20:27:34.192Z,100671.44
2023-01-12T20:30:36.580Z,100694.13
2023-01-12T20:33:24.507Z,100688.84
2023-01-12T20:36:11.767Z,100676.59
2023-01-12T20:38:58.497Z,100687.91
2023-01-12T20:41:43.775Z,100674.34
2023-01-12T20:44:29.293Z,100680.28
2023-01-12T20:47:19.074Z,100670.69
2023-01-12T20:50:07.655Z,100678.41
2023-01-12T20:52:56.981Z,100693.19
2023-01-12T20:55:44.346Z,100682.22
2023-01-12T20:58:29.983Z,100682.16
2023-01-12T21:01:15.841Z,100671.19
2023-01-12T21:04:01.326Z,100662.56
2023-01-12T21:06:46.742Z,100687.81
2023-01-12T21:09:32.069Z,100667.91
2023-01-12T21:12:17.559Z,100673.22
2023-01-12T21:15:03.623Z,100672.72
2023-01-12T21:17:49.522Z,100674.53
2023-01-12T21:20:34.703Z,100668.53
2023-01-12T21:23:20.533Z,100670.13
2023-01-12T21:26:08.844Z,100655.66
2023-01-12T21:28:53.947Z,100663.44
2023-01-12T21:31:39.235Z,100651.31
2023-01-12T21:34:24.408Z,100647.81
2023-01-12T21:37:10.089Z,100651.56
2023-01-12T21:39:55.496Z,100646.53
2023-01-12T21:42:59.536Z,100649.69
2023-01-12T21:45:48.817Z,100654.06
2023-01-12T21:48:35.389Z,100654.34
2023-01-12T21:51:23.773Z,100655.19
2023-01-12T21:54:09.449Z,100660.34
2023-01-12T21:56:54.599Z,100655.91
2023-01-12T21:59:39.716Z,100672.84
2023-01-12T22:02:25.589Z,100659.88
2023-01-12T22:05:11.312Z,100662.44
2023-01-12T22:07:57.868Z,100662.91
2023-01-12T22:10:43.414Z,100663.97
2023-01-12T22:13:28.769Z,100669.50
2023-01-12T22:16:15.787Z,100668.13
2023-01-12T22:19:00.987Z,100664.75
2023-01-12T22:21:46.408Z,100672.62
2023-01-12T22:24:31.805Z,100680.34
2023-01-12T22:27:17.837Z,100665.72
2023-01-12T22:30:04.838Z,100660.31
2023-01-12T22:32:55.412Z,100667.56
2023-01-12T22:35:40.800Z,100667.09
2023-01-12T22:38:25.972Z,100657.09
2023-01-12T22:41:12.159Z,100662.47
2023-01-12T22:43:57.150Z,100653.00
2023-01-12T22:46:44.650Z,100659.88
2023-01-12T22:49:30.063Z,100656.78
2023-01-12T22:52:15.280Z,100642.12
2023-01-12T22:55:00.807Z,100637.03
2023-01-12T22:57:47.426Z,100628.97
2023-01-12T23:00:32.705Z,100648.66
2023-01-12T23:03:18.697Z,100642.78
2023-01-12T23:06:12.084Z,100633.53
2023-01-12T23:08:57.394Z,100639.72
2023-01-12T23:11:42.751Z,100641.28
2023-01-12T23:14:28.026Z,100652.12
2023-01-12T23:17:12.967Z,100648.38
2023-01-12T23:19:58.472Z,100654.31
2023-01-12T23:22:43.603Z,100655.28
2023-01-12T23:25:29.149Z,100642.00
2023-01-12T23:28:14.992Z,100648.84
2023-01-12T23:31:09.840Z,100651.88
2023-01-12T23:33:57.015Z,100657.84
2023-01-12T23:36:44.331Z,100658.47
2023-01-12T23:39:29.897Z,100656.78
2023-01-12T23:42:15.236Z,100653.41
2023-01-12T23:45:01.064Z,100663.66
2023-01-12T23:47:47.413Z,100659.62
2023-01-12T23:50:44.407Z,100663.19
2023-01-12T23:53:30.170Z,100657.34
2023-01-12T23:56:16.785Z,100653.94
2023-01-12T23:59:02.209Z,100646.94
